sensor_id;sensor_type;location;lat;lon;timestamp;P1;durP1;ratioP1;P2;durP2;ratioP2
12900;SDS011;6518;50.930;5.344;2023-06-22T00:01:00;12.88;;;5.35;;
12900;SDS011;6518;50.930;5.344;2023-06-22T00:03:27;14.63;;;5.47;;
12900;SDS011;6518;50.930;5.344;2023-06-22T00:05:55;17.38;;;5.13;;
12900;SDS011;6518;50.930;5.344;2023-06-22T00:08:22;19.77;;;5.53;;
12900;SDS011;6518;50.930;5.344;2023-06-22T00:10:49;14.07;;;5.53;;
12900;SDS011;6518;50.930;5.344;2023-06-22T00:13:16;13.82;;;5.15;;
12900;SDS011;6518;50.930;5.344;2023-06-22T00:15:43;12.30;;;5.03;;
12900;SDS011;6518;50.930;5.344;2023-06-22T00:18:10;8.88;;;4.55;;
12900;SDS011;6518;50.930;5.344;2023-06-22T00:20:38;13.52;;;5.03;;
12900;SDS011;6518;50.930;5.344;2023-06-22T00:23:06;9.55;;;4.72;;
12900;SDS011;6518;50.930;5.344;2023-06-22T00:25:34;12.27;;;4.80;;
12900;SDS011;6518;50.930;5.344;2023-06-22T00:28:01;14.45;;;5.03;;
12900;SDS011;6518;50.930;5.344;2023-06-22T00:30:28;12.50;;;4.90;;
12900;SDS011;6518;50.930;5.344;2023-06-22T00:32:56;14.07;;;5.47;;
12900;SDS011;6518;50.930;5.344;2023-06-22T00:35:24;10.98;;;4.63;;
12900;SDS011;6518;50.930;5.344;2023-06-22T00:37:54;12.73;;;4.65;;
12900;SDS011;6518;50.930;5.344;2023-06-22T00:40:27;13.00;;;5.18;;
12900;SDS011;6518;50.930;5.344;2023-06-22T00:42:54;10.55;;;4.53;;
12900;SDS011;6518;50.930;5.344;2023-06-22T00:45:21;15.38;;;5.20;;
12900;SDS011;6518;50.930;5.344;2023-06-22T00:47:49;17.13;;;6.32;;
12900;SDS011;6518;50.930;5.344;2023-06-22T00:50:18;17.80;;;6.03;;
12900;SDS011;6518;50.930;5.344;2023-06-22T00:52:48;20.05;;;7.20;;
12900;SDS011;6518;50.930;5.344;2023-06-22T00:55:18;29.60;;;9.30;;
12900;SDS011;6518;50.930;5.344;2023-06-22T00:57:47;26.40;;;8.60;;
12900;SDS011;6518;50.930;5.344;2023-06-22T01:00:14;29.17;;;9.38;;
12900;SDS011;6518;50.930;5.344;2023-06-22T01:02:43;34.38;;;10.30;;
12900;SDS011;6518;50.930;5.344;2023-06-22T01:05:11;35.50;;;10.55;;
12900;SDS011;6518;50.930;5.344;2023-06-22T01:07:40;33.58;;;10.60;;
12900;SDS011;6518;50.930;5.344;2023-06-22T01:10:14;38.35;;;10.73;;
12900;SDS011;6518;50.930;5.344;2023-06-22T01:12:48;36.47;;;10.77;;
12900;SDS011;6518;50.930;5.344;2023-06-22T01:15:20;40.53;;;11.75;;
12900;SDS011;6518;50.930;5.344;2023-06-22T01:17:51;36.47;;;12.25;;
12900;SDS011;6518;50.930;5.344;2023-06-22T01:20:19;41.47;;;11.27;;
12900;SDS011;6518;50.930;5.344;2023-06-22T01:22:50;43.30;;;11.85;;
12900;SDS011;6518;50.930;5.344;2023-06-22T01:25:36;31.90;;;10.32;;
12900;SDS011;6518;50.930;5.344;2023-06-22T01:28:17;31.67;;;11.07;;
12900;SDS011;6518;50.930;5.344;2023-06-22T01:30:51;37.35;;;11.43;;
12900;SDS011;6518;50.930;5.344;2023-06-22T01:33:31;36.03;;;11.75;;
12900;SDS011;6518;50.930;5.344;2023-06-22T01:36:00;36.65;;;11.48;;
12900;SDS011;6518;50.930;5.344;2023-06-22T01:38:28;34.42;;;11.07;;
12900;SDS011;6518;50.930;5.344;2023-06-22T01:40:57;31.85;;;10.88;;
12900;SDS011;6518;50.930;5.344;2023-06-22T01:43:25;36.83;;;11.05;;
12900;SDS011;6518;50.930;5.344;2023-06-22T01:45:55;36.83;;;10.35;;
12900;SDS011;6518;50.930;5.344;2023-06-22T01:48:23;32.42;;;10.88;;
12900;SDS011;6518;50.930;5.344;2023-06-22T01:50:51;32.47;;;10.63;;
12900;SDS011;6518;50.930;5.344;2023-06-22T01:53:20;32.53;;;9.70;;
12900;SDS011;6518;50.930;5.344;2023-06-22T01:55:47;26.38;;;9.10;;
12900;SDS011;6518;50.930;5.344;2023-06-22T01:58:14;35.47;;;10.85;;
12900;SDS011;6518;50.930;5.344;2023-06-22T02:00:43;29.80;;;9.63;;
12900;SDS011;6518;50.930;5.344;2023-06-22T02:03:17;32.92;;;10.48;;
12900;SDS011;6518;50.930;5.344;2023-06-22T02:05:48;31.17;;;11.25;;
12900;SDS011;6518;50.930;5.344;2023-06-22T02:08:19;29.10;;;9.93;;
12900;SDS011;6518;50.930;5.344;2023-06-22T02:10:48;27.85;;;10.20;;
12900;SDS011;6518;50.930;5.344;2023-06-22T02:13:16;29.23;;;10.40;;
12900;SDS011;6518;50.930;5.344;2023-06-22T02:15:44;29.73;;;9.88;;
12900;SDS011;6518;50.930;5.344;2023-06-22T02:18:12;22.90;;;9.35;;
12900;SDS011;6518;50.930;5.344;2023-06-22T02:20:41;20.77;;;9.55;;
12900;SDS011;6518;50.930;5.344;2023-06-22T02:23:07;21.02;;;8.82;;
12900;SDS011;6518;50.930;5.344;2023-06-22T02:25:35;21.08;;;9.13;;
12900;SDS011;6518;50.930;5.344;2023-06-22T02:28:03;19.40;;;9.25;;
12900;SDS011;6518;50.930;5.344;2023-06-22T02:30:30;19.73;;;9.15;;
12900;SDS011;6518;50.930;5.344;2023-06-22T02:32:58;23.63;;;9.70;;
12900;SDS011;6518;50.930;5.344;2023-06-22T02:35:25;20.88;;;9.30;;
12900;SDS011;6518;50.930;5.344;2023-06-22T02:37:53;18.98;;;9.98;;
12900;SDS011;6518;50.930;5.344;2023-06-22T02:40:20;16.00;;;8.95;;
12900;SDS011;6518;50.930;5.344;2023-06-22T02:42:47;19.65;;;10.07;;
12900;SDS011;6518;50.930;5.344;2023-06-22T02:45:14;16.98;;;10.18;;
12900;SDS011;6518;50.930;5.344;2023-06-22T02:47:41;16.17;;;9.98;;
12900;SDS011;6518;50.930;5.344;2023-06-22T02:50:08;24.45;;;10.75;;
12900;SDS011;6518;50.930;5.344;2023-06-22T02:52:35;15.38;;;10.15;;
12900;SDS011;6518;50.930;5.344;2023-06-22T02:55:05;17.70;;;11.43;;
12900;SDS011;6518;50.930;5.344;2023-06-22T02:57:33;16.20;;;10.35;;
12900;SDS011;6518;50.930;5.344;2023-06-22T03:00:02;20.45;;;11.40;;
12900;SDS011;6518;50.930;5.344;2023-06-22T03:02:41;14.90;;;10.25;;
12900;SDS011;6518;50.930;5.344;2023-06-22T03:05:08;18.48;;;11.45;;
12900;SDS011;6518;50.930;5.344;2023-06-22T03:07:38;17.35;;;11.60;;
12900;SDS011;6518;50.930;5.344;2023-06-22T03:10:08;18.27;;;11.27;;
12900;SDS011;6518;50.930;5.344;2023-06-22T03:12:35;16.08;;;11.48;;
12900;SDS011;6518;50.930;5.344;2023-06-22T03:15:03;15.32;;;12.40;;
12900;SDS011;6518;50.930;5.344;2023-06-22T03:17:31;16.50;;;12.88;;
12900;SDS011;6518;50.930;5.344;2023-06-22T03:19:58;16.40;;;11.60;;
12900;SDS011;6518;50.930;5.344;2023-06-22T03:22:25;15.10;;;11.82;;
12900;SDS011;6518;50.930;5.344;2023-06-22T03:24:52;17.73;;;13.18;;
12900;SDS011;6518;50.930;5.344;2023-06-22T03:27:20;16.30;;;11.95;;
12900;SDS011;6518;50.930;5.344;2023-06-22T03:29:47;16.77;;;13.27;;
12900;SDS011;6518;50.930;5.344;2023-06-22T03:32:14;15.77;;;13.38;;
12900;SDS011;6518;50.930;5.344;2023-06-22T03:34:41;20.73;;;14.02;;
12900;SDS011;6518;50.930;5.344;2023-06-22T03:37:12;16.98;;;13.07;;
12900;SDS011;6518;50.930;5.344;2023-06-22T03:39:40;16.20;;;13.65;;
12900;SDS011;6518;50.930;5.344;2023-06-22T03:42:07;17.52;;;13.70;;
12900;SDS011;6518;50.930;5.344;2023-06-22T03:44:35;19.02;;;13.52;;
12900;SDS011;6518;50.930;5.344;2023-06-22T03:47:02;15.40;;;13.05;;
12900;SDS011;6518;50.930;5.344;2023-06-22T03:49:32;17.50;;;13.85;;
12900;SDS011;6518;50.930;5.344;2023-06-22T03:51:59;16.80;;;12.50;;
12900;SDS011;6518;50.930;5.344;2023-06-22T03:54:27;15.73;;;13.75;;
12900;SDS011;6518;50.930;5.344;2023-06-22T03:56:56;17.55;;;14.15;;
12900;SDS011;6518;50.930;5.344;2023-06-22T03:59:23;16.60;;;12.30;;
12900;SDS011;6518;50.930;5.344;2023-06-22T04:01:51;16.20;;;13.15;;
12900;SDS011;6518;50.930;5.344;2023-06-22T04:04:18;15.18;;;12.90;;
12900;SDS011;6518;50.930;5.344;2023-06-22T04:06:45;15.57;;;13.52;;
12900;SDS011;6518;50.930;5.344;2023-06-22T04:09:12;18.15;;;12.80;;
12900;SDS011;6518;50.930;5.344;2023-06-22T04:11:39;13.77;;;11.40;;
12900;SDS011;6518;50.930;5.344;2023-06-22T04:14:06;16.42;;;12.20;;
12900;SDS011;6518;50.930;5.344;2023-06-22T04:16:33;15.77;;;11.20;;
12900;SDS011;6518;50.930;5.344;2023-06-22T04:19:01;14.88;;;11.25;;
12900;SDS011;6518;50.930;5.344;2023-06-22T04:21:28;16.63;;;12.02;;
12900;SDS011;6518;50.930;5.344;2023-06-22T04:23:55;12.10;;;10.80;;
12900;SDS011;6518;50.930;5.344;2023-06-22T04:26:22;14.23;;;10.70;;
12900;SDS011;6518;50.930;5.344;2023-06-22T04:28:48;14.70;;;11.68;;
12900;SDS011;6518;50.930;5.344;2023-06-22T04:31:20;14.00;;;11.95;;
12900;SDS011;6518;50.930;5.344;2023-06-22T04:33:56;13.23;;;11.82;;
12900;SDS011;6518;50.930;5.344;2023-06-22T04:36:24;17.15;;;12.18;;
12900;SDS011;6518;50.930;5.344;2023-06-22T04:38:55;17.65;;;13.77;;
12900;SDS011;6518;50.930;5.344;2023-06-22T04:41:22;17.67;;;13.68;;
12900;SDS011;6518;50.930;5.344;2023-06-22T04:43:49;14.50;;;11.70;;
12900;SDS011;6518;50.930;5.344;2023-06-22T04:46:19;18.35;;;16.42;;
12900;SDS011;6518;50.930;5.344;2023-06-22T04:48:46;19.33;;;17.17;;
12900;SDS011;6518;50.930;5.344;2023-06-22T04:51:12;18.88;;;16.90;;
12900;SDS011;6518;50.930;5.344;2023-06-22T04:53:40;18.67;;;16.27;;
12900;SDS011;6518;50.930;5.344;2023-06-22T04:56:08;19.48;;;15.77;;
12900;SDS011;6518;50.930;5.344;2023-06-22T04:58:35;20.52;;;15.77;;
12900;SDS011;6518;50.930;5.344;2023-06-22T05:01:01;17.83;;;15.93;;
12900;SDS011;6518;50.930;5.344;2023-06-22T05:03:28;16.83;;;14.38;;
12900;SDS011;6518;50.930;5.344;2023-06-22T05:05:55;19.10;;;15.52;;
12900;SDS011;6518;50.930;5.344;2023-06-22T05:08:22;16.52;;;14.40;;
12900;SDS011;6518;50.930;5.344;2023-06-22T05:10:53;17.77;;;15.05;;
12900;SDS011;6518;50.930;5.344;2023-06-22T05:13:21;16.98;;;15.30;;
12900;SDS011;6518;50.930;5.344;2023-06-22T05:15:51;18.75;;;15.85;;
12900;SDS011;6518;50.930;5.344;2023-06-22T05:18:26;17.77;;;15.70;;
12900;SDS011;6518;50.930;5.344;2023-06-22T05:20:55;16.40;;;14.73;;
12900;SDS011;6518;50.930;5.344;2023-06-22T05:23:22;20.25;;;16.38;;
12900;SDS011;6518;50.930;5.344;2023-06-22T05:25:49;19.42;;;17.30;;
12900;SDS011;6518;50.930;5.344;2023-06-22T05:28:18;21.00;;;18.75;;
12900;SDS011;6518;50.930;5.344;2023-06-22T05:30:48;22.77;;;20.38;;
12900;SDS011;6518;50.930;5.344;2023-06-22T05:33:14;21.77;;;18.83;;
12900;SDS011;6518;50.930;5.344;2023-06-22T05:35:41;21.38;;;18.77;;
12900;SDS011;6518;50.930;5.344;2023-06-22T05:38:08;20.42;;;18.15;;
12900;SDS011;6518;50.930;5.344;2023-06-22T05:40:35;24.35;;;19.08;;
12900;SDS011;6518;50.930;5.344;2023-06-22T05:43:02;25.70;;;20.67;;
12900;SDS011;6518;50.930;5.344;2023-06-22T05:45:30;24.02;;;21.38;;
12900;SDS011;6518;50.930;5.344;2023-06-22T05:47:57;23.45;;;21.05;;
12900;SDS011;6518;50.930;5.344;2023-06-22T05:50:24;26.80;;;20.88;;
12900;SDS011;6518;50.930;5.344;2023-06-22T05:52:51;29.13;;;21.65;;
12900;SDS011;6518;50.930;5.344;2023-06-22T05:55:18;25.08;;;22.58;;
12900;SDS011;6518;50.930;5.344;2023-06-22T05:57:44;27.77;;;23.10;;
12900;SDS011;6518;50.930;5.344;2023-06-22T06:00:12;26.25;;;23.23;;
12900;SDS011;6518;50.930;5.344;2023-06-22T06:02:41;23.08;;;20.58;;
12900;SDS011;6518;50.930;5.344;2023-06-22T06:05:09;25.10;;;22.48;;
12900;SDS011;6518;50.930;5.344;2023-06-22T06:07:36;24.52;;;21.52;;
12900;SDS011;6518;50.930;5.344;2023-06-22T06:10:04;23.70;;;21.30;;
12900;SDS011;6518;50.930;5.344;2023-06-22T06:12:31;22.02;;;19.67;;
12900;SDS011;6518;50.930;5.344;2023-06-22T06:14:58;24.73;;;21.10;;
12900;SDS011;6518;50.930;5.344;2023-06-22T06:17:25;25.45;;;20.35;;
12900;SDS011;6518;50.930;5.344;2023-06-22T06:19:53;23.38;;;20.88;;
12900;SDS011;6518;50.930;5.344;2023-06-22T06:22:20;23.88;;;21.38;;
12900;SDS011;6518;50.930;5.344;2023-06-22T06:24:48;27.77;;;23.73;;
12900;SDS011;6518;50.930;5.344;2023-06-22T06:27:15;28.35;;;24.33;;
12900;SDS011;6518;50.930;5.344;2023-06-22T06:29:44;25.25;;;22.55;;
12900;SDS011;6518;50.930;5.344;2023-06-22T06:32:13;26.30;;;21.90;;
12900;SDS011;6518;50.930;5.344;2023-06-22T06:34:40;23.50;;;21.02;;
12900;SDS011;6518;50.930;5.344;2023-06-22T06:37:09;22.95;;;20.50;;
12900;SDS011;6518;50.930;5.344;2023-06-22T06:39:36;23.00;;;20.15;;
12900;SDS011;6518;50.930;5.344;2023-06-22T06:42:04;22.92;;;20.58;;
12900;SDS011;6518;50.930;5.344;2023-06-22T06:44:31;23.67;;;21.10;;
12900;SDS011;6518;50.930;5.344;2023-06-22T06:46:58;23.25;;;20.75;;
12900;SDS011;6518;50.930;5.344;2023-06-22T06:49:25;23.67;;;21.17;;
12900;SDS011;6518;50.930;5.344;2023-06-22T06:51:54;26.52;;;21.33;;
12900;SDS011;6518;50.930;5.344;2023-06-22T06:54:23;21.85;;;19.55;;
12900;SDS011;6518;50.930;5.344;2023-06-22T06:56:50;21.52;;;19.42;;
12900;SDS011;6518;50.930;5.344;2023-06-22T06:59:17;23.55;;;19.65;;
12900;SDS011;6518;50.930;5.344;2023-06-22T07:01:44;20.70;;;18.70;;
12900;SDS011;6518;50.930;5.344;2023-06-22T07:04:11;21.80;;;19.60;;
12900;SDS011;6518;50.930;5.344;2023-06-22T07:06:38;21.80;;;19.63;;
12900;SDS011;6518;50.930;5.344;2023-06-22T07:09:05;23.52;;;19.67;;
12900;SDS011;6518;50.930;5.344;2023-06-22T07:11:33;21.20;;;19.10;;
12900;SDS011;6518;50.930;5.344;2023-06-22T07:14:01;21.75;;;19.65;;
12900;SDS011;6518;50.930;5.344;2023-06-22T07:16:28;21.35;;;19.20;;
12900;SDS011;6518;50.930;5.344;2023-06-22T07:18:56;20.02;;;17.85;;
12900;SDS011;6518;50.930;5.344;2023-06-22T07:21:25;20.65;;;18.55;;
12900;SDS011;6518;50.930;5.344;2023-06-22T07:23:52;21.20;;;18.35;;
12900;SDS011;6518;50.930;5.344;2023-06-22T07:26:20;21.00;;;18.13;;
12900;SDS011;6518;50.930;5.344;2023-06-22T07:28:49;21.02;;;18.73;;
12900;SDS011;6518;50.930;5.344;2023-06-22T07:31:16;21.85;;;18.80;;
12900;SDS011;6518;50.930;5.344;2023-06-22T07:33:43;20.83;;;18.73;;
12900;SDS011;6518;50.930;5.344;2023-06-22T07:36:10;20.55;;;18.30;;
12900;SDS011;6518;50.930;5.344;2023-06-22T07:38:37;19.95;;;17.60;;
12900;SDS011;6518;50.930;5.344;2023-06-22T07:41:04;21.52;;;18.23;;
12900;SDS011;6518;50.930;5.344;2023-06-22T07:43:31;20.00;;;17.98;;
12900;SDS011;6518;50.930;5.344;2023-06-22T07:46:00;21.42;;;19.13;;
12900;SDS011;6518;50.930;5.344;2023-06-22T07:48:27;22.90;;;18.50;;
12900;SDS011;6518;50.930;5.344;2023-06-22T07:50:54;20.70;;;18.08;;
12900;SDS011;6518;50.930;5.344;2023-06-22T07:53:21;20.40;;;17.67;;
12900;SDS011;6518;50.930;5.344;2023-06-22T07:55:49;23.00;;;19.20;;
12900;SDS011;6518;50.930;5.344;2023-06-22T07:58:16;20.80;;;17.92;;
12900;SDS011;6518;50.930;5.344;2023-06-22T08:00:45;23.13;;;18.13;;
12900;SDS011;6518;50.930;5.344;2023-06-22T08:03:15;20.27;;;18.20;;
12900;SDS011;6518;50.930;5.344;2023-06-22T08:05:42;23.65;;;19.25;;
12900;SDS011;6518;50.930;5.344;2023-06-22T08:08:09;22.23;;;17.70;;
12900;SDS011;6518;50.930;5.344;2023-06-22T08:10:36;20.02;;;18.02;;
12900;SDS011;6518;50.930;5.344;2023-06-22T08:13:04;20.13;;;17.90;;
12900;SDS011;6518;50.930;5.344;2023-06-22T08:15:31;20.85;;;18.30;;
12900;SDS011;6518;50.930;5.344;2023-06-22T08:17:58;20.05;;;17.83;;
12900;SDS011;6518;50.930;5.344;2023-06-22T08:20:27;19.15;;;16.90;;
12900;SDS011;6518;50.930;5.344;2023-06-22T08:22:55;19.55;;;17.42;;
12900;SDS011;6518;50.930;5.344;2023-06-22T08:25:24;21.23;;;19.02;;
12900;SDS011;6518;50.930;5.344;2023-06-22T08:27:51;18.42;;;16.42;;
12900;SDS011;6518;50.930;5.344;2023-06-22T08:30:18;20.60;;;17.95;;
12900;SDS011;6518;50.930;5.344;2023-06-22T08:32:45;20.40;;;18.23;;
12900;SDS011;6518;50.930;5.344;2023-06-22T08:35:12;20.65;;;17.02;;
12900;SDS011;6518;50.930;5.344;2023-06-22T08:37:40;19.63;;;17.52;;
12900;SDS011;6518;50.930;5.344;2023-06-22T08:40:07;19.17;;;17.08;;
12900;SDS011;6518;50.930;5.344;2023-06-22T08:42:36;17.20;;;15.50;;
12900;SDS011;6518;50.930;5.344;2023-06-22T08:45:03;19.65;;;17.75;;
12900;SDS011;6518;50.930;5.344;2023-06-22T08:47:31;21.38;;;18.55;;
12900;SDS011;6518;50.930;5.344;2023-06-22T08:49:58;19.77;;;17.55;;
12900;SDS011;6518;50.930;5.344;2023-06-22T08:52:27;19.85;;;17.85;;
12900;SDS011;6518;50.930;5.344;2023-06-22T08:54:55;20.55;;;17.75;;
12900;SDS011;6518;50.930;5.344;2023-06-22T08:57:23;20.02;;;18.08;;
12900;SDS011;6518;50.930;5.344;2023-06-22T08:59:50;20.15;;;18.10;;
12900;SDS011;6518;50.930;5.344;2023-06-22T09:02:18;20.80;;;18.70;;
12900;SDS011;6518;50.930;5.344;2023-06-22T09:04:45;20.00;;;18.02;;
12900;SDS011;6518;50.930;5.344;2023-06-22T09:07:13;19.70;;;17.80;;
12900;SDS011;6518;50.930;5.344;2023-06-22T09:09:47;20.58;;;18.45;;
12900;SDS011;6518;50.930;5.344;2023-06-22T09:12:15;24.42;;;19.17;;
12900;SDS011;6518;50.930;5.344;2023-06-22T09:14:45;19.42;;;17.42;;
12900;SDS011;6518;50.930;5.344;2023-06-22T09:17:12;22.75;;;19.55;;
12900;SDS011;6518;50.930;5.344;2023-06-22T09:19:39;21.88;;;19.58;;
12900;SDS011;6518;50.930;5.344;2023-06-22T09:22:07;22.52;;;20.13;;
12900;SDS011;6518;50.930;5.344;2023-06-22T09:24:34;22.30;;;20.00;;
12900;SDS011;6518;50.930;5.344;2023-06-22T09:27:01;22.65;;;20.35;;
12900;SDS011;6518;50.930;5.344;2023-06-22T09:29:29;22.85;;;20.58;;
12900;SDS011;6518;50.930;5.344;2023-06-22T09:31:58;23.80;;;21.20;;
12900;SDS011;6518;50.930;5.344;2023-06-22T09:34:25;22.05;;;19.40;;
12900;SDS011;6518;50.930;5.344;2023-06-22T09:36:52;23.58;;;20.85;;
12900;SDS011;6518;50.930;5.344;2023-06-22T09:39:20;22.30;;;20.05;;
12900;SDS011;6518;50.930;5.344;2023-06-22T09:41:47;24.05;;;21.27;;
12900;SDS011;6518;50.930;5.344;2023-06-22T09:44:13;23.08;;;20.20;;
12900;SDS011;6518;50.930;5.344;2023-06-22T09:46:42;24.17;;;21.73;;
12900;SDS011;6518;50.930;5.344;2023-06-22T09:49:09;21.95;;;19.75;;
12900;SDS011;6518;50.930;5.344;2023-06-22T09:51:36;23.63;;;21.33;;
12900;SDS011;6518;50.930;5.344;2023-06-22T09:54:03;24.17;;;21.77;;
12900;SDS011;6518;50.930;5.344;2023-06-22T09:56:30;23.80;;;21.17;;
12900;SDS011;6518;50.930;5.344;2023-06-22T09:58:56;25.30;;;22.58;;
12900;SDS011;6518;50.930;5.344;2023-06-22T10:01:23;26.17;;;22.80;;
12900;SDS011;6518;50.930;5.344;2023-06-22T10:03:52;27.48;;;24.63;;
12900;SDS011;6518;50.930;5.344;2023-06-22T10:06:21;25.77;;;23.05;;
12900;SDS011;6518;50.930;5.344;2023-06-22T10:08:48;26.42;;;23.83;;
12900;SDS011;6518;50.930;5.344;2023-06-22T10:11:16;28.25;;;25.15;;
12900;SDS011;6518;50.930;5.344;2023-06-22T10:13:43;27.73;;;25.02;;
12900;SDS011;6518;50.930;5.344;2023-06-22T10:16:10;29.38;;;26.38;;
12900;SDS011;6518;50.930;5.344;2023-06-22T10:18:37;32.20;;;27.98;;
12900;SDS011;6518;50.930;5.344;2023-06-22T10:21:05;29.25;;;26.25;;
12900;SDS011;6518;50.930;5.344;2023-06-22T10:23:32;31.17;;;28.17;;
12900;SDS011;6518;50.930;5.344;2023-06-22T10:25:59;31.83;;;28.73;;
12900;SDS011;6518;50.930;5.344;2023-06-22T10:28:25;31.58;;;28.17;;
12900;SDS011;6518;50.930;5.344;2023-06-22T10:30:52;33.60;;;30.05;;
12900;SDS011;6518;50.930;5.344;2023-06-22T10:33:19;33.25;;;29.95;;
12900;SDS011;6518;50.930;5.344;2023-06-22T10:35:46;35.95;;;32.00;;
12900;SDS011;6518;50.930;5.344;2023-06-22T10:38:14;35.20;;;31.67;;
12900;SDS011;6518;50.930;5.344;2023-06-22T10:40:41;36.15;;;32.33;;
12900;SDS011;6518;50.930;5.344;2023-06-22T10:43:08;36.67;;;32.97;;
12900;SDS011;6518;50.930;5.344;2023-06-22T10:45:35;38.10;;;33.75;;
12900;SDS011;6518;50.930;5.344;2023-06-22T10:48:02;37.10;;;33.08;;
12900;SDS011;6518;50.930;5.344;2023-06-22T10:50:29;40.35;;;33.97;;
12900;SDS011;6518;50.930;5.344;2023-06-22T10:52:56;37.80;;;33.60;;
12900;SDS011;6518;50.930;5.344;2023-06-22T10:55:25;35.20;;;31.50;;
12900;SDS011;6518;50.930;5.344;2023-06-22T10:57:52;38.58;;;34.03;;
12900;SDS011;6518;50.930;5.344;2023-06-22T11:00:19;37.63;;;33.78;;
12900;SDS011;6518;50.930;5.344;2023-06-22T11:02:46;36.67;;;32.97;;
12900;SDS011;6518;50.930;5.344;2023-06-22T11:05:13;35.28;;;31.77;;
12900;SDS011;6518;50.930;5.344;2023-06-22T11:07:41;37.95;;;34.03;;
12900;SDS011;6518;50.930;5.344;2023-06-22T11:10:09;36.53;;;32.78;;
12900;SDS011;6518;50.930;5.344;2023-06-22T11:12:37;36.67;;;32.97;;
12900;SDS011;6518;50.930;5.344;2023-06-22T11:15:05;36.65;;;32.90;;
12900;SDS011;6518;50.930;5.344;2023-06-22T11:17:32;36.85;;;33.25;;
12900;SDS011;6518;50.930;5.344;2023-06-22T11:19:59;34.47;;;30.92;;
12900;SDS011;6518;50.930;5.344;2023-06-22T11:22:26;37.58;;;33.47;;
12900;SDS011;6518;50.930;5.344;2023-06-22T11:24:53;35.65;;;32.13;;
12900;SDS011;6518;50.930;5.344;2023-06-22T11:27:21;35.75;;;32.28;;
12900;SDS011;6518;50.930;5.344;2023-06-22T11:29:49;34.88;;;31.35;;
12900;SDS011;6518;50.930;5.344;2023-06-22T11:32:18;34.95;;;31.52;;
12900;SDS011;6518;50.930;5.344;2023-06-22T11:34:45;37.05;;;33.28;;
12900;SDS011;6518;50.930;5.344;2023-06-22T11:37:12;35.58;;;31.75;;
12900;SDS011;6518;50.930;5.344;2023-06-22T11:39:38;34.85;;;31.52;;
12900;SDS011;6518;50.930;5.344;2023-06-22T11:42:06;34.97;;;31.55;;
12900;SDS011;6518;50.930;5.344;2023-06-22T11:44:33;33.67;;;30.38;;
12900;SDS011;6518;50.930;5.344;2023-06-22T11:47:01;35.67;;;31.92;;
12900;SDS011;6518;50.930;5.344;2023-06-22T11:49:29;36.35;;;32.78;;
12900;SDS011;6518;50.930;5.344;2023-06-22T11:51:56;34.35;;;31.05;;
12900;SDS011;6518;50.930;5.344;2023-06-22T11:54:23;34.90;;;31.50;;
12900;SDS011;6518;50.930;5.344;2023-06-22T11:56:50;37.15;;;33.45;;
12900;SDS011;6518;50.930;5.344;2023-06-22T11:59:17;34.63;;;31.23;;
12900;SDS011;6518;50.930;5.344;2023-06-22T12:01:44;36.85;;;33.00;;
12900;SDS011;6518;50.930;5.344;2023-06-22T12:04:12;35.20;;;31.67;;
12900;SDS011;6518;50.930;5.344;2023-06-22T12:06:40;36.28;;;32.58;;
12900;SDS011;6518;50.930;5.344;2023-06-22T12:09:08;36.92;;;33.33;;
12900;SDS011;6518;50.930;5.344;2023-06-22T12:11:35;36.42;;;32.92;;
12900;SDS011;6518;50.930;5.344;2023-06-22T12:14:03;37.38;;;33.72;;
12900;SDS011;6518;50.930;5.344;2023-06-22T12:16:30;38.83;;;35.05;;
12900;SDS011;6518;50.930;5.344;2023-06-22T12:18:57;38.75;;;34.95;;
12900;SDS011;6518;50.930;5.344;2023-06-22T12:21:25;39.10;;;35.17;;
12900;SDS011;6518;50.930;5.344;2023-06-22T12:23:52;38.83;;;34.83;;
12900;SDS011;6518;50.930;5.344;2023-06-22T12:26:19;39.88;;;35.80;;
12900;SDS011;6518;50.930;5.344;2023-06-22T12:28:46;39.88;;;35.83;;
12900;SDS011;6518;50.930;5.344;2023-06-22T12:31:14;40.67;;;36.50;;
12900;SDS011;6518;50.930;5.344;2023-06-22T12:33:40;42.55;;;38.20;;
12900;SDS011;6518;50.930;5.344;2023-06-22T12:36:07;41.47;;;37.45;;
12900;SDS011;6518;50.930;5.344;2023-06-22T12:38:35;41.15;;;36.97;;
12900;SDS011;6518;50.930;5.344;2023-06-22T12:41:02;39.25;;;35.38;;
12900;SDS011;6518;50.930;5.344;2023-06-22T12:43:29;42.60;;;38.20;;
12900;SDS011;6518;50.930;5.344;2023-06-22T12:45:56;42.35;;;38.00;;
12900;SDS011;6518;50.930;5.344;2023-06-22T12:48:24;43.88;;;39.45;;
12900;SDS011;6518;50.930;5.344;2023-06-22T12:50:51;42.00;;;37.55;;
12900;SDS011;6518;50.930;5.344;2023-06-22T12:53:18;44.03;;;39.60;;
12900;SDS011;6518;50.930;5.344;2023-06-22T12:55:49;44.20;;;39.80;;
12900;SDS011;6518;50.930;5.344;2023-06-22T12:58:16;43.72;;;39.28;;
12900;SDS011;6518;50.930;5.344;2023-06-22T13:00:43;45.80;;;41.10;;
12900;SDS011;6518;50.930;5.344;2023-06-22T13:03:09;45.28;;;40.65;;
12900;SDS011;6518;50.930;5.344;2023-06-22T13:05:36;44.50;;;39.70;;
12900;SDS011;6518;50.930;5.344;2023-06-22T13:08:03;43.78;;;39.25;;
12900;SDS011;6518;50.930;5.344;2023-06-22T13:10:30;42.90;;;38.40;;
12900;SDS011;6518;50.930;5.344;2023-06-22T13:12:58;42.33;;;37.92;;
12900;SDS011;6518;50.930;5.344;2023-06-22T13:15:26;41.95;;;37.75;;
12900;SDS011;6518;50.930;5.344;2023-06-22T13:17:53;40.25;;;36.13;;
12900;SDS011;6518;50.930;5.344;2023-06-22T13:20:21;39.80;;;35.67;;
12900;SDS011;6518;50.930;5.344;2023-06-22T13:22:48;38.70;;;34.78;;
12900;SDS011;6518;50.930;5.344;2023-06-22T13:25:15;36.80;;;33.00;;
12900;SDS011;6518;50.930;5.344;2023-06-22T13:27:44;34.42;;;30.83;;
12900;SDS011;6518;50.930;5.344;2023-06-22T13:30:12;33.30;;;29.67;;
12900;SDS011;6518;50.930;5.344;2023-06-22T13:32:39;32.45;;;29.17;;
12900;SDS011;6518;50.930;5.344;2023-06-22T13:35:08;34.35;;;30.70;;
12900;SDS011;6518;50.930;5.344;2023-06-22T13:37:35;33.42;;;30.13;;
12900;SDS011;6518;50.930;5.344;2023-06-22T13:40:03;33.72;;;30.02;;
12900;SDS011;6518;50.930;5.344;2023-06-22T13:42:31;32.03;;;27.77;;
12900;SDS011;6518;50.930;5.344;2023-06-22T13:44:59;32.00;;;28.80;;
12900;SDS011;6518;50.930;5.344;2023-06-22T13:47:27;30.65;;;27.42;;
12900;SDS011;6518;50.930;5.344;2023-06-22T13:49:54;31.02;;;27.08;;
12900;SDS011;6518;50.930;5.344;2023-06-22T13:52:22;29.85;;;26.65;;
12900;SDS011;6518;50.930;5.344;2023-06-22T13:54:50;30.67;;;27.63;;
12900;SDS011;6518;50.930;5.344;2023-06-22T13:57:16;30.67;;;27.48;;
12900;SDS011;6518;50.930;5.344;2023-06-22T13:59:43;31.95;;;28.63;;
12900;SDS011;6518;50.930;5.344;2023-06-22T14:02:10;35.40;;;31.80;;
12900;SDS011;6518;50.930;5.344;2023-06-22T14:04:38;35.65;;;31.52;;
12900;SDS011;6518;50.930;5.344;2023-06-22T14:07:06;36.92;;;32.95;;
12900;SDS011;6518;50.930;5.344;2023-06-22T14:09:33;36.65;;;33.00;;
12900;SDS011;6518;50.930;5.344;2023-06-22T14:12:02;41.60;;;35.22;;
12900;SDS011;6518;50.930;5.344;2023-06-22T14:14:30;37.50;;;33.78;;
12900;SDS011;6518;50.930;5.344;2023-06-22T14:16:57;40.05;;;35.83;;
12900;SDS011;6518;50.930;5.344;2023-06-22T14:19:24;37.88;;;34.08;;
12900;SDS011;6518;50.930;5.344;2023-06-22T14:21:52;39.70;;;35.53;;
12900;SDS011;6518;50.930;5.344;2023-06-22T14:24:19;37.53;;;33.63;;
12900;SDS011;6518;50.930;5.344;2023-06-22T14:26:46;40.42;;;36.33;;
12900;SDS011;6518;50.930;5.344;2023-06-22T14:29:13;39.45;;;35.30;;
12900;SDS011;6518;50.930;5.344;2023-06-22T14:31:40;42.63;;;38.25;;
12900;SDS011;6518;50.930;5.344;2023-06-22T14:34:10;36.83;;;32.75;;
12900;SDS011;6518;50.930;5.344;2023-06-22T14:36:37;37.60;;;33.70;;
12900;SDS011;6518;50.930;5.344;2023-06-22T14:39:05;42.78;;;38.17;;